createdAt,value
2023-05-22T00:01:06.843Z,77.52
2023-05-22T00:02:43.178Z,77.81
2023-05-22T00:04:21.202Z,77.45
2023-05-22T00:05:53.372Z,78.00
2023-05-22T00:07:25.131Z,79.09
2023-05-22T00:08:57.323Z,78.44
2023-05-22T00:10:29.034Z,78.41
2023-05-22T00:12:00.728Z,78.00
2023-05-22T00:13:32.539Z,78.06
2023-05-22T00:15:04.825Z,79.54
2023-05-22T00:16:36.675Z,78.37
2023-05-22T00:18:09.789Z,77.62
2023-05-22T00:19:41.536Z,77.41
2023-05-22T00:21:13.237Z,77.83
2023-05-22T00:22:45.055Z,78.09
2023-05-22T00:24:16.783Z,78.36
2023-05-22T00:25:48.535Z,78.23
2023-05-22T00:27:20.281Z,77.76
2023-05-22T00:28:52.012Z,77.47
2023-05-22T00:30:23.688Z,77.67
2023-05-22T00:31:55.488Z,78.86
2023-05-22T00:33:28.561Z,78.17
2023-05-22T00:35:00.302Z,78.34
2023-05-22T00:36:32.044Z,78.50
2023-05-22T00:38:03.846Z,78.67
2023-05-22T00:39:35.638Z,79.03
2023-05-22T00:41:07.527Z,78.99
2023-05-22T00:42:39.279Z,79.06
2023-05-22T00:44:12.043Z,79.31
2023-05-22T00:45:44.008Z,79.52
2023-05-22T00:47:15.725Z,79.31
2023-05-22T00:48:49.277Z,79.38
2023-05-22T00:50:20.928Z,79.19
2023-05-22T00:51:52.757Z,79.48
2023-05-22T00:53:24.733Z,79.09
2023-05-22T00:54:56.403Z,78.97
2023-05-22T00:56:29.088Z,78.96
2023-05-22T00:58:01.190Z,80.17
2023-05-22T00:59:32.855Z,81.54
2023-05-22T01:01:07.778Z,81.24
2023-05-22T01:02:39.810Z,81.41
2023-05-22T01:04:13.101Z,80.62
2023-05-22T01:05:45.358Z,80.40
2023-05-22T01:07:17.970Z,81.07
2023-05-22T01:08:49.675Z,82.65
2023-05-22T01:10:21.464Z,82.08
2023-05-22T01:11:57.121Z,81.45
2023-05-22T01:13:30.016Z,79.72
2023-05-22T01:15:05.040Z,80.24
2023-05-22T01:16:39.682Z,82.05
2023-05-22T01:18:19.549Z,80.61
2023-05-22T01:20:01.619Z,79.69
2023-05-22T01:21:37.309Z,79.45
2023-05-22T01:23:24.459Z,79.94
2023-05-22T01:25:06.307Z,79.80
2023-05-22T01:27:10.617Z,79.78
2023-05-22T01:28:49.279Z,80.72
2023-05-22T01:30:48.400Z,82.08
2023-05-22T01:32:21.664Z,81.19
2023-05-22T01:33:55.585Z,83.97
2023-05-22T01:35:27.334Z,81.77
2023-05-22T01:36:59.008Z,82.70
2023-05-22T01:38:30.774Z,81.18
2023-05-22T01:40:02.511Z,81.03
2023-05-22T01:41:34.191Z,80.89
2023-05-22T01:43:05.935Z,81.01
2023-05-22T01:44:37.633Z,81.32
2023-05-22T01:46:10.726Z,80.87
2023-05-22T01:47:42.521Z,82.43
2023-05-22T01:49:14.231Z,82.73
2023-05-22T01:50:46.613Z,82.05
2023-05-22T01:52:22.653Z,83.34
2023-05-22T01:53:57.291Z,83.18
2023-05-22T01:55:30.884Z,81.81
2023-05-22T01:57:05.837Z,82.40
2023-05-22T01:58:40.033Z,81.99
2023-05-22T02:00:14.221Z,81.29
2023-05-22T02:01:47.379Z,82.30
2023-05-22T02:03:20.021Z,81.76
2023-05-22T02:04:53.417Z,82.50
2023-05-22T02:06:25.893Z,81.88
2023-05-22T02:07:58.249Z,80.85
2023-05-22T02:09:31.198Z,80.59
2023-05-22T02:11:02.947Z,80.24
2023-05-22T02:12:34.661Z,80.17
2023-05-22T02:14:06.652Z,79.77
2023-05-22T02:15:38.455Z,80.08
2023-05-22T02:17:11.586Z,80.98
2023-05-22T02:18:43.651Z,81.27
2023-05-22T02:20:16.195Z,80.88
2023-05-22T02:21:47.889Z,81.16
2023-05-22T02:23:19.569Z,80.54
2023-05-22T02:24:51.523Z,83.14
2023-05-22T02:26:23.303Z,81.64
2023-05-22T02:27:54.965Z,82.19
2023-05-22T02:29:26.658Z,83.36
2023-05-22T02:30:58.361Z,81.44
2023-05-22T02:32:31.529Z,81.31
2023-05-22T02:34:05.392Z,81.23
2023-05-22T02:35:37.089Z,82.43
2023-05-22T02:37:08.911Z,83.11
2023-05-22T02:38:40.680Z,81.77
2023-05-22T02:40:12.690Z,81.74
2023-05-22T02:41:44.388Z,82.47
2023-05-22T02:43:16.094Z,81.99
2023-05-22T02:44:47.773Z,81.61
2023-05-22T02:46:19.507Z,81.86
2023-05-22T02:47:52.739Z,83.04
2023-05-22T02:49:24.470Z,83.64
2023-05-22T02:50:56.166Z,83.34
2023-05-22T02:52:28.434Z,84.29
2023-05-22T02:54:00.243Z,82.56
2023-05-22T02:55:32.042Z,81.18
2023-05-22T02:57:04.147Z,82.29
2023-05-22T02:58:35.967Z,82.63
2023-05-22T03:00:11.618Z,81.55
2023-05-22T03:01:44.459Z,82.96
2023-05-22T03:03:18.153Z,81.53
2023-05-22T03:04:50.108Z,81.64
2023-05-22T03:06:22.012Z,81.97
2023-05-22T03:07:53.699Z,84.70
2023-05-22T03:09:25.768Z,82.64
2023-05-22T03:10:57.915Z,82.73
2023-05-22T03:12:29.731Z,81.42
2023-05-22T03:14:01.562Z,81.77
2023-05-22T03:15:33.299Z,81.22
2023-05-22T03:17:05.455Z,81.38
2023-05-22T03:18:38.705Z,80.98
2023-05-22T03:20:11.195Z,81.53
2023-05-22T03:21:46.021Z,82.85
2023-05-22T03:23:18.033Z,81.37
2023-05-22T03:24:49.737Z,81.09
2023-05-22T03:26:22.096Z,81.31
2023-05-22T03:27:53.753Z,81.80
2023-05-22T03:29:25.544Z,81.48
2023-05-22T03:30:57.299Z,81.79
2023-05-22T03:32:29.039Z,82.37
2023-05-22T03:34:03.121Z,84.76
2023-05-22T03:35:34.991Z,83.40
2023-05-22T03:37:06.758Z,82.07
2023-05-22T03:38:38.577Z,81.31
2023-05-22T03:40:10.957Z,82.26
2023-05-22T03:41:42.840Z,81.71
2023-05-22T03:43:14.516Z,81.34
2023-05-22T03:44:46.296Z,81.81
2023-05-22T03:46:18.308Z,81.45
2023-05-22T03:47:50.082Z,82.24
2023-05-22T03:49:23.177Z,81.99
2023-05-22T03:50:55.364Z,83.45
2023-05-22T03:52:27.051Z,84.02
2023-05-22T03:54:01.863Z,82.66
2023-05-22T03:55:33.682Z,82.95
2023-05-22T03:57:05.810Z,81.88
2023-05-22T03:58:37.578Z,82.60
2023-05-22T04:00:12.594Z,82.60
2023-05-22T04:01:46.663Z,82.19
2023-05-22T04:03:19.845Z,82.16
2023-05-22T04:04:53.265Z,82.36
2023-05-22T04:06:25.667Z,81.45
2023-05-22T04:07:57.423Z,82.46
2023-05-22T04:09:33.059Z,81.81
2023-05-22T04:11:05.623Z,82.13
2023-05-22T04:12:37.284Z,80.97
2023-05-22T04:14:09.106Z,82.33
2023-05-22T04:15:45.909Z,81.51
2023-05-22T04:17:24.972Z,82.40
2023-05-22T04:18:56.749Z,82.06
2023-05-22T04:20:29.941Z,82.18
2023-05-22T04:22:01.697Z,80.98
2023-05-22T04:23:33.382Z,81.83
2023-05-22T04:25:06.603Z,82.93
2023-05-22T04:26:39.896Z,82.89
2023-05-22T04:28:13.070Z,82.92
2023-05-22T04:29:45.237Z,83.83
2023-05-22T04:31:17.022Z,83.72
2023-05-22T04:32:48.891Z,82.83
2023-05-22T04:34:21.906Z,82.63
2023-05-22T04:35:55.414Z,83.09
2023-05-22T04:37:28.766Z,82.90
2023-05-22T04:39:00.513Z,83.78
2023-05-22T04:40:33.767Z,82.51
2023-05-22T04:42:06.166Z,82.19
2023-05-22T04:43:38.731Z,82.82
2023-05-22T04:45:11.442Z,82.93
2023-05-22T04:46:43.859Z,83.46
2023-05-22T04:48:16.365Z,82.04
2023-05-22T04:49:48.248Z,82.43
2023-05-22T04:51:23.055Z,81.70
2023-05-22T04:52:54.699Z,83.23
2023-05-22T04:54:26.337Z,82.27
2023-05-22T04:55:57.981Z,82.94
2023-05-22T04:57:29.687Z,82.61
2023-05-22T04:59:01.320Z,82.87
2023-05-22T05:00:33.352Z,82.57
2023-05-22T05:02:05.369Z,82.68
2023-05-22T05:03:37.132Z,83.08
2023-05-22T05:05:09.392Z,82.13
2023-05-22T05:06:43.214Z,82.34
2023-05-22T05:08:16.546Z,83.12
2023-05-22T05:09:48.197Z,81.92
2023-05-22T05:11:19.831Z,83.26
2023-05-22T05:12:51.665Z,83.80
2023-05-22T05:14:25.330Z,86.86
2023-05-22T05:15:58.992Z,81.94
2023-05-22T05:17:30.880Z,81.18
2023-05-22T05:19:04.010Z,84.37
2023-05-22T05:20:36.077Z,82.04
2023-05-22T05:22:09.243Z,83.81
2023-05-22T05:23:41.250Z,81.68
2023-05-22T05:25:12.981Z,84.64
2023-05-22T05:26:44.697Z,87.18
2023-05-22T05:28:16.336Z,81.60
2023-05-22T05:29:47.979Z,80.22
2023-05-22T05:31:20.643Z,85.38
2023-05-22T05:32:52.475Z,84.08
2023-05-22T05:34:24.214Z,84.95
2023-05-22T05:35:55.861Z,85.73
2023-05-22T05:37:28.939Z,84.89
2023-05-22T05:39:00.659Z,85.11
2023-05-22T05:40:34.478Z,86.61
2023-05-22T05:42:06.446Z,85.21
2023-05-22T05:43:38.179Z,85.07
2023-05-22T05:45:11.416Z,86.76
2023-05-22T05:46:46.227Z,86.95
2023-05-22T05:48:18.304Z,87.56
2023-05-22T05:49:50.018Z,85.48
2023-05-22T05:51:22.175Z,86.10
2023-05-22T05:52:55.301Z,86.35
2023-05-22T05:54:27.177Z,85.87
2023-05-22T05:56:00.138Z,84.29
2023-05-22T05:57:31.840Z,84.85
2023-05-22T05:59:04.112Z,85.65
2023-05-22T06:00:39.125Z,85.07
2023-05-22T06:02:14.347Z,83.78
2023-05-22T06:03:46.486Z,84.20
2023-05-22T06:05:19.422Z,85.54
2023-05-22T06:06:53.319Z,85.07
2023-05-22T06:08:26.354Z,84.19
2023-05-22T06:09:58.424Z,82.97
2023-05-22T06:11:30.385Z,83.42
2023-05-22T06:13:02.110Z,83.67
2023-05-22T06:14:33.733Z,83.38
2023-05-22T06:16:06.842Z,83.47
2023-05-22T06:17:38.820Z,83.79
2023-05-22T06:19:10.769Z,83.85
2023-05-22T06:21:11.931Z,84.90
2023-05-22T06:22:45.619Z,84.18
2023-05-22T06:24:17.271Z,83.78
2023-05-22T06:25:48.907Z,84.17
2023-05-22T06:27:22.575Z,83.77
2023-05-22T06:28:54.531Z,84.14
2023-05-22T06:30:38.873Z,84.29
2023-05-22T06:32:11.615Z,84.39
2023-05-22T06:33:43.720Z,84.41
2023-05-22T06:35:15.824Z,83.84
2023-05-22T06:36:52.109Z,83.87
2023-05-22T06:38:27.205Z,83.70
2023-05-22T06:40:01.216Z,83.53
2023-05-22T06:41:33.685Z,82.65
2023-05-22T06:43:05.484Z,82.89
2023-05-22T06:44:37.108Z,82.63
2023-05-22T06:46:08.974Z,83.05
2023-05-22T06:47:40.681Z,83.09
2023-05-22T06:49:12.854Z,82.61
2023-05-22T06:50:44.483Z,81.39
2023-05-22T06:52:18.775Z,81.58
2023-05-22T06:53:50.411Z,82.01
2023-05-22T06:55:22.483Z,81.51
2023-05-22T06:56:54.222Z,81.55
2023-05-22T06:58:28.856Z,81.41
2023-05-22T07:00:01.237Z,82.17
2023-05-22T07:01:33.330Z,80.99
2023-05-22T07:03:06.881Z,78.78
2023-05-22T07:04:38.695Z,79.55
2023-05-22T07:06:10.566Z,79.94
2023-05-22T07:07:43.944Z,79.69
2023-05-22T07:09:15.811Z,79.21
2023-05-22T07:10:47.792Z,79.54
2023-05-22T07:12:25.857Z,78.52
2023-05-22T07:13:57.472Z,78.20
2023-05-22T07:15:29.096Z,78.80
2023-05-22T07:17:00.820Z,79.29
2023-05-22T07:18:32.470Z,78.79
2023-05-22T07:20:05.463Z,79.19
2023-05-22T07:21:37.281Z,79.95
2023-05-22T07:23:10.277Z,77.93
2023-05-22T07:24:41.992Z,79.32
2023-05-22T07:26:13.656Z,77.37
2023-05-22T07:27:45.564Z,78.50
2023-05-22T07:29:17.181Z,78.95
2023-05-22T07:30:48.919Z,77.86
2023-05-22T07:32:20.612Z,77.10
2023-05-22T07:33:52.496Z,76.26
2023-05-22T07:35:26.349Z,76.35
2023-05-22T07:36:57.982Z,76.88
2023-05-22T07:38:31.074Z,75.48
2023-05-22T07:40:02.876Z,75.79
2023-05-22T07:41:34.605Z,75.93
2023-05-22T07:43:06.321Z,76.24
2023-05-22T07:44:38.025Z,75.63
2023-05-22T07:46:10.863Z,73.69
2023-05-22T07:47:42.596Z,74.47
2023-05-22T07:49:19.388Z,73.27
2023-05-22T07:50:51.261Z,73.85
2023-05-22T07:52:23.907Z,73.41
2023-05-22T07:55:28.587Z,72.14
2023-05-22T07:57:03.418Z,71.95
2023-05-22T07:58:35.147Z,71.28
2023-05-22T08:00:12.824Z,72.15
2023-05-22T08:01:45.471Z,70.61
2023-05-22T08:03:17.538Z,70.68
2023-05-22T08:04:50.439Z,71.02
2023-05-22T08:06:23.817Z,70.78
2023-05-22T08:07:55.607Z,70.84
2023-05-22T08:09:28.593Z,71.32
2023-05-22T08:11:04.061Z,69.85
2023-05-22T08:12:36.253Z,70.17
2023-05-22T08:14:07.953Z,69.31
2023-05-22T08:15:39.646Z,69.55
2023-05-22T08:17:11.608Z,69.87
2023-05-22T08:18:43.550Z,69.51
2023-05-22T08:20:15.430Z,68.69
2023-05-22T08:21:47.292Z,67.61
2023-05-22T08:23:19.409Z,67.80
2023-05-22T08:24:53.841Z,66.90
2023-05-22T08:26:26.056Z,68.30
2023-05-22T08:27:57.686Z,67.91
2023-05-22T08:29:29.360Z,68.03
2023-05-22T08:31:01.060Z,67.26
2023-05-22T08:32:32.766Z,67.35
2023-05-22T08:34:04.985Z,67.99
2023-05-22T08:35:36.654Z,67.32
2023-05-22T08:37:09.442Z,66.69
2023-05-22T08:38:41.122Z,67.87
2023-05-22T08:40:14.629Z,67.88
2023-05-22T08:41:47.627Z,66.86
2023-05-22T08:43:20.067Z,66.28
2023-05-22T08:44:51.739Z,65.93
2023-05-22T08:46:26.203Z,66.45
2023-05-22T08:47:58.080Z,66.76
2023-05-22T08:49:30.183Z,65.35
2023-05-22T08:51:03.246Z,65.95
2023-05-22T08:52:38.914Z,63.91
2023-05-22T08:54:10.609Z,67.37
2023-05-22T08:55:43.798Z,64.10
2023-05-22T08:57:15.469Z,64.33
2023-05-22T08:58:47.217Z,65.24
2023-05-22T09:00:20.110Z,64.42
2023-05-22T09:01:52.456Z,64.92
2023-05-22T09:03:28.676Z,65.42
2023-05-22T09:05:02.076Z,64.72
2023-05-22T09:06:33.824Z,63.72
2023-05-22T09:08:19.190Z,64.56
2023-05-22T09:09:52.921Z,62.75
2023-05-22T09:11:29.026Z,61.46
2023-05-22T09:13:04.453Z,63.04
2023-05-22T09:14:38.932Z,62.80
2023-05-22T09:16:11.742Z,62.83
2023-05-22T09:17:45.929Z,61.79
2023-05-22T09:19:17.731Z,61.18
2023-05-22T09:20:52.923Z,62.18
2023-05-22T09:22:34.947Z,59.62
2023-05-22T09:24:08.128Z,62.44
2023-05-22T09:25:39.895Z,62.23
2023-05-22T09:27:12.891Z,62.46
2023-05-22T09:28:46.781Z,60.47
2023-05-22T09:30:18.603Z,60.70
2023-05-22T09:31:53.246Z,60.41
2023-05-22T09:33:25.122Z,59.95
2023-05-22T09:35:02.274Z,59.98
2023-05-22T09:36:34.184Z,60.62
2023-05-22T09:38:06.423Z,60.54
2023-05-22T09:39:44.300Z,60.16
2023-05-22T09:41:22.206Z,59.56
2023-05-22T09:42:55.217Z,59.51
2023-05-22T09:44:27.021Z,60.72
2023-05-22T09:46:01.005Z,60.56
2023-05-22T09:47:35.871Z,60.74
2023-05-22T09:49:07.542Z,58.77
2023-05-22T09:50:42.331Z,59.73
2023-05-22T09:52:14.444Z,59.58
2023-05-22T09:53:46.685Z,59.50
2023-05-22T09:55:18.807Z,59.57
2023-05-22T09:56:51.001Z,59.59
2023-05-22T09:58:24.693Z,60.17
2023-05-22T09:59:58.493Z,59.35
2023-05-22T10:01:31.135Z,58.15
2023-05-22T10:03:06.909Z,59.35
2023-05-22T10:04:38.662Z,61.46
2023-05-22T10:06:12.184Z,58.58
2023-05-22T10:07:46.554Z,58.48
2023-05-22T10:09:19.674Z,57.72
2023-05-22T10:10:54.817Z,58.03
2023-05-22T10:12:26.525Z,58.58
2023-05-22T10:14:00.769Z,59.01
2023-05-22T10:15:32.539Z,57.02
2023-05-22T10:17:06.665Z,58.84
2023-05-22T10:18:38.364Z,59.00
2023-05-22T10:20:11.183Z,58.90
2023-05-22T10:21:42.798Z,59.23
2023-05-22T10:23:15.230Z,59.47
2023-05-22T10:24:47.168Z,55.37
2023-05-22T10:26:19.193Z,57.19
2023-05-22T10:27:52.250Z,54.72
2023-05-22T10:29:36.533Z,56.61
2023-05-22T10:31:10.136Z,55.36
2023-05-22T10:32:43.262Z,56.77
2023-05-22T10:34:17.984Z,56.51
2023-05-22T10:35:53.306Z,55.53
2023-05-22T10:37:42.105Z,54.78
2023-05-22T10:39:24.209Z,54.24
2023-05-22T10:40:55.825Z,53.48
2023-05-22T10:42:29.779Z,56.70
2023-05-22T10:44:02.391Z,54.60
2023-05-22T10:45:36.583Z,54.50
2023-05-22T10:47:11.249Z,54.78
2023-05-22T10:48:45.675Z,55.21
2023-05-22T10:50:17.620Z,52.90
2023-05-22T10:51:49.299Z,55.29
2023-05-22T10:53:22.983Z,56.37
2023-05-22T10:54:54.654Z,53.92
2023-05-22T10:56:34.359Z,52.99
2023-05-22T10:58:12.941Z,52.83
2023-05-22T10:59:44.756Z,54.00
2023-05-22T11:01:18.611Z,51.74
2023-05-22T11:02:50.350Z,53.85
2023-05-22T11:04:22.541Z,51.50
2023-05-22T11:05:54.529Z,53.14
2023-05-22T11:07:26.225Z,50.91
2023-05-22T11:08:58.054Z,50.73
2023-05-22T11:10:53.916Z,53.92
2023-05-22T11:12:27.432Z,51.84
2023-05-22T11:14:03.146Z,50.10
2023-05-22T11:15:34.936Z,50.39
2023-05-22T11:17:08.085Z,50.22
2023-05-22T11:18:39.931Z,49.08
2023-05-22T11:20:12.893Z,50.04
2023-05-22T11:21:45.780Z,48.17
2023-05-22T11:23:18.226Z,48.22
2023-05-22T11:24:49.977Z,48.85
2023-05-22T11:26:22.662Z,46.18
2023-05-22T11:27:55.053Z,48.26
2023-05-22T11:29:26.767Z,49.05
2023-05-22T11:30:58.532Z,49.33
2023-05-22T11:32:31.645Z,47.37
2023-05-22T11:34:03.373Z,47.28
2023-05-22T11:35:34.978Z,45.02
2023-05-22T11:37:06.582Z,44.89
2023-05-22T11:38:38.360Z,46.13
2023-05-22T11:40:10.807Z,43.82
2023-05-22T11:41:43.355Z,45.02
2023-05-22T11:43:15.034Z,44.91
2023-05-22T11:44:46.720Z,45.73
2023-05-22T11:46:18.358Z,48.21
2023-05-22T11:47:51.485Z,46.10
2023-05-22T11:49:24.068Z,45.69
2023-05-22T11:50:56.532Z,46.02
2023-05-22T11:52:31.413Z,45.60
2023-05-22T11:54:03.171Z,43.85
2023-05-22T11:55:35.034Z,43.49
2023-05-22T11:57:08.127Z,44.35
2023-05-22T11:58:39.841Z,43.30
2023-05-22T12:00:12.377Z,42.83
2023-05-22T12:01:44.055Z,41.75
2023-05-22T12:03:17.652Z,42.63
2023-05-22T12:04:54.056Z,44.04
2023-05-22T12:06:25.909Z,40.57
2023-05-22T12:07:57.709Z,42.43
2023-05-22T12:09:29.409Z,40.80
2023-05-22T12:11:01.156Z,39.86
2023-05-22T12:12:33.064Z,39.59
2023-05-22T12:14:05.153Z,39.91
2023-05-22T12:15:42.589Z,40.68
2023-05-22T12:17:14.658Z,43.78
2023-05-22T12:18:47.924Z,39.62
2023-05-22T12:20:20.109Z,40.61
2023-05-22T12:21:54.525Z,36.58
2023-05-22T12:23:40.145Z,38.81
2023-05-22T12:25:16.456Z,41.86
2023-05-22T12:26:49.628Z,38.40
2023-05-22T12:28:21.260Z,41.37
2023-05-22T12:29:56.044Z,38.90
2023-05-22T12:31:27.675Z,39.20
2023-05-22T12:33:02.143Z,41.32
2023-05-22T12:34:35.558Z,40.48
2023-05-22T12:36:07.727Z,39.59
2023-05-22T12:37:39.347Z,40.41
2023-05-22T12:39:11.817Z,46.02
2023-05-22T12:40:43.464Z,41.80
2023-05-22T12:42:15.180Z,41.35
2023-05-22T12:43:46.804Z,40.52
2023-05-22T12:45:18.761Z,42.48
2023-05-22T12:46:52.177Z,40.83
2023-05-22T12:48:23.906Z,40.08
2023-05-22T12:49:56.866Z,40.99
2023-05-22T12:51:29.802Z,39.23
2023-05-22T12:53:01.549Z,41.81
2023-05-22T12:54:33.164Z,42.00
2023-05-22T12:56:05.888Z,42.47
2023-05-22T12:57:37.681Z,42.25
2023-05-22T12:59:09.297Z,42.22
2023-05-22T13:00:41.234Z,43.47
2023-05-22T13:02:13.070Z,43.63
2023-05-22T13:03:45.652Z,46.05
2023-05-22T13:05:18.775Z,42.49
2023-05-22T13:06:50.562Z,42.05
2023-05-22T13:08:23.554Z,41.64
2023-05-22T13:09:55.196Z,42.82
2023-05-22T13:11:26.918Z,42.68
2023-05-22T13:12:58.548Z,43.58
2023-05-22T13:14:30.239Z,41.47
2023-05-22T13:16:02.062Z,42.23
2023-05-22T13:17:33.887Z,43.38
2023-05-22T13:19:05.669Z,39.44
2023-05-22T13:20:38.712Z,39.31
2023-05-22T13:22:10.429Z,43.31
2023-05-22T13:23:42.257Z,40.95
2023-05-22T13:25:14.054Z,42.05
2023-05-22T13:26:45.770Z,40.04
2023-05-22T13:28:17.374Z,41.78
2023-05-22T13:29:49.073Z,40.77
2023-05-22T13:31:20.845Z,41.78
2023-05-22T13:32:52.727Z,42.40
2023-05-22T13:34:24.728Z,42.24
2023-05-22T13:35:57.882Z,43.81
2023-05-22T13:37:29.535Z,41.65
2023-05-22T13:39:01.178Z,41.12
2023-05-22T13:40:32.793Z,42.25
2023-05-22T13:42:04.934Z,42.59
2023-05-22T13:43:36.583Z,42.78
2023-05-22T13:45:09.476Z,40.45
2023-05-22T13:46:41.269Z,41.13
2023-05-22T13:48:13.149Z,40.79
2023-05-22T13:49:45.348Z,38.92
2023-05-22T13:51:18.460Z,37.57
2023-05-22T13:52:50.156Z,38.87
2023-05-22T13:54:21.812Z,40.19
2023-05-22T13:55:55.085Z,40.33
2023-05-22T13:57:26.824Z,39.88
2023-05-22T13:58:58.510Z,40.51
2023-05-22T14:00:30.262Z,40.25
2023-05-22T14:02:02.003Z,43.40
2023-05-22T14:03:33.861Z,39.23
2023-05-22T14:05:06.212Z,44.14
2023-05-22T14:06:39.320Z,38.74
2023-05-22T14:08:11.081Z,38.31
2023-05-22T14:09:42.749Z,37.19
2023-05-22T14:11:14.404Z,37.73
2023-05-22T14:12:46.228Z,37.54
2023-05-22T14:14:23.699Z,36.74
2023-05-22T14:15:55.419Z,39.33
2023-05-22T14:17:27.092Z,38.52
2023-05-22T14:18:59.299Z,38.26
2023-05-22T14:20:30.951Z,41.00
2023-05-22T14:22:04.193Z,38.65
2023-05-22T14:23:35.899Z,36.66
2023-05-22T14:25:10.838Z,38.39
2023-05-22T14:26:42.505Z,36.04
2023-05-22T14:28:14.277Z,36.01
2023-05-22T14:29:46.001Z,36.11
2023-05-22T14:31:17.746Z,35.82
2023-05-22T14:32:49.630Z,36.77
2023-05-22T14:34:21.384Z,38.05
2023-05-22T14:35:53.077Z,37.41
2023-05-22T14:37:26.033Z,37.57
2023-05-22T14:38:57.681Z,36.36
2023-05-22T14:40:29.354Z,36.83
2023-05-22T14:42:00.993Z,35.44
2023-05-22T14:43:33.469Z,37.61
2023-05-22T14:45:05.929Z,41.26
2023-05-22T14:46:37.620Z,35.89
2023-05-22T14:48:11.029Z,36.43
2023-05-22T14:49:42.873Z,36.04
2023-05-22T14:51:14.548Z,36.65
2023-05-22T14:52:47.703Z,37.35
2023-05-22T14:54:20.040Z,41.16
2023-05-22T14:55:51.755Z,37.35
2023-05-22T14:57:23.522Z,36.42
2023-05-22T14:58:55.235Z,36.97
2023-05-22T15:00:26.903Z,37.29
2023-05-22T15:01:58.643Z,37.15
2023-05-22T15:03:30.396Z,36.15
2023-05-22T15:05:02.062Z,35.28
2023-05-22T15:06:33.744Z,35.53
2023-05-22T15:08:06.733Z,37.37
2023-05-22T15:09:38.420Z,36.84
2023-05-22T15:11:10.054Z,37.58
2023-05-22T15:12:41.720Z,38.48
2023-05-22T15:14:13.425Z,38.41
2023-05-22T15:15:45.183Z,39.07
2023-05-22T15:17:16.826Z,39.08
2023-05-22T15:18:48.512Z,38.11
2023-05-22T15:20:20.384Z,40.02
2023-05-22T15:21:52.091Z,37.21
2023-05-22T15:23:26.494Z,37.31
2023-05-22T15:25:05.453Z,36.99
2023-05-22T15:26:37.088Z,37.70
2023-05-22T15:28:08.721Z,39.17
2023-05-22T15:29:40.625Z,38.78
2023-05-22T15:31:13.238Z,42.34
2023-05-22T15:32:45.066Z,39.92
2023-05-22T15:34:16.817Z,44.69
2023-05-22T15:35:48.583Z,44.83
2023-05-22T15:37:20.384Z,46.86
2023-05-22T15:38:53.409Z,46.19
2023-05-22T15:40:25.140Z,44.99
2023-05-22T15:42:05.667Z,46.07
2023-05-22T15:43:37.894Z,44.43
2023-05-22T15:45:09.847Z,43.86
2023-05-22T15:46:41.455Z,48.68
2023-05-22T15:48:13.125Z,47.63
2023-05-22T15:49:44.784Z,48.15
2023-05-22T15:51:16.380Z,48.44
2023-05-22T15:52:48.004Z,48.02
2023-05-22T15:54:20.966Z,46.39
2023-05-22T15:55:52.560Z,47.75
2023-05-22T15:57:24.268Z,47.00
2023-05-22T15:58:56.061Z,47.48
2023-05-22T16:00:27.731Z,49.55
2023-05-22T16:01:59.364Z,46.86
2023-05-22T16:03:31.073Z,48.37
2023-05-22T16:05:02.901Z,47.56
2023-05-22T16:06:34.608Z,45.19
2023-05-22T16:08:12.267Z,46.97
2023-05-22T16:09:45.290Z,49.53
2023-05-22T16:11:16.901Z,48.30
2023-05-22T16:12:48.752Z,47.48
2023-05-22T16:14:20.406Z,48.22
2023-05-22T16:15:52.058Z,47.28
2023-05-22T16:17:23.710Z,46.54
2023-05-22T16:18:55.388Z,50.96
2023-05-22T16:20:27.102Z,49.04
2023-05-22T16:21:58.945Z,50.01
2023-05-22T16:23:30.662Z,46.44
2023-05-22T16:25:04.083Z,49.73
2023-05-22T16:26:37.874Z,50.00
2023-05-22T16:28:10.981Z,48.01
2023-05-22T16:29:42.714Z,47.80
2023-05-22T16:31:18.912Z,47.81
2023-05-22T16:32:50.996Z,47.62
2023-05-22T16:34:22.697Z,47.41
2023-05-22T16:35:54.464Z,48.37
2023-05-22T16:37:26.254Z,47.09
2023-05-22T16:38:57.916Z,45.78
2023-05-22T16:40:31.138Z,47.90
2023-05-22T16:42:02.900Z,47.89
2023-05-22T16:43:34.565Z,46.12
2023-05-22T16:45:07.238Z,47.75
2023-05-22T16:46:39.090Z,46.74
2023-05-22T16:48:11.235Z,47.02
2023-05-22T16:49:42.972Z,48.87
2023-05-22T16:51:14.582Z,48.49
2023-05-22T16:52:46.231Z,47.46
2023-05-22T16:54:17.924Z,49.09
2023-05-22T16:55:51.238Z,48.57
2023-05-22T16:57:23.187Z,46.23
2023-05-22T16:58:54.836Z,48.92
2023-05-22T17:00:26.491Z,48.67
2023-05-22T17:01:58.252Z,47.50
2023-05-22T17:03:30.005Z,47.43
2023-05-22T17:05:01.822Z,47.44
2023-05-22T17:06:33.594Z,48.24
2023-05-22T17:08:05.579Z,47.08
2023-05-22T17:09:37.176Z,46.70
2023-05-22T17:11:10.164Z,47.69
2023-05-22T17:12:41.905Z,48.93
2023-05-22T17:14:13.624Z,46.76
2023-05-22T17:15:45.640Z,49.46
2023-05-22T17:17:17.269Z,47.02
2023-05-22T17:18:48.894Z,48.53
2023-05-22T17:20:22.063Z,48.36
2023-05-22T17:21:53.746Z,48.76
2023-05-22T17:23:25.802Z,48.40
2023-05-22T17:24:57.437Z,47.95
2023-05-22T17:26:30.515Z,49.93
2023-05-22T17:28:02.312Z,49.98
2023-05-22T17:29:34.071Z,50.63
2023-05-22T17:31:06.364Z,50.21
2023-05-22T17:32:38.039Z,50.23
2023-05-22T17:34:09.721Z,49.21
2023-05-22T17:35:41.782Z,50.14
2023-05-22T17:37:13.410Z,51.45
2023-05-22T17:38:45.098Z,50.70
2023-05-22T17:40:17.322Z,51.38
2023-05-22T17:41:51.320Z,51.18
2023-05-22T17:43:23.001Z,51.78
2023-05-22T17:44:54.632Z,52.94
2023-05-22T17:46:26.975Z,52.85
2023-05-22T17:47:58.684Z,52.80
2023-05-22T17:49:30.373Z,53.09
2023-05-22T17:51:02.154Z,53.32
2023-05-22T17:52:33.807Z,51.53
2023-05-22T17:54:06.134Z,52.40
2023-05-22T17:55:37.773Z,52.14
2023-05-22T17:57:11.156Z,53.08
2023-05-22T17:58:42.860Z,53.40
2023-05-22T18:00:16.154Z,54.13
2023-05-22T18:01:47.969Z,52.74
2023-05-22T18:03:20.525Z,53.99
2023-05-22T18:04:52.795Z,54.62
2023-05-22T18:06:24.588Z,54.06
2023-05-22T18:07:56.279Z,54.52
2023-05-22T18:09:27.909Z,54.40
2023-05-22T18:10:59.624Z,55.43
2023-05-22T18:12:32.632Z,56.44
2023-05-22T18:14:04.616Z,55.11
2023-05-22T18:15:36.357Z,54.67
2023-05-22T18:17:08.128Z,54.11
2023-05-22T18:18:39.760Z,54.50
2023-05-22T18:20:16.654Z,54.05
2023-05-22T18:21:48.371Z,54.62
2023-05-22T18:23:20.628Z,54.87
2023-05-22T18:24:52.261Z,55.75
2023-05-22T18:26:23.897Z,55.42
2023-05-22T18:27:56.944Z,56.13
2023-05-22T18:29:28.577Z,55.17
2023-05-22T18:31:01.354Z,55.39
2023-05-22T18:32:33.249Z,54.06
2023-05-22T18:34:05.001Z,55.90
2023-05-22T18:35:36.642Z,54.82
2023-05-22T18:37:08.268Z,55.12
2023-05-22T18:38:39.941Z,55.68
2023-05-22T18:40:12.747Z,56.02
2023-05-22T18:41:44.363Z,56.12
2023-05-22T18:43:17.477Z,56.76
2023-05-22T18:44:49.591Z,54.18
2023-05-22T18:46:21.313Z,53.96
2023-05-22T18:47:53.379Z,53.89
2023-05-22T18:49:25.466Z,54.59
2023-05-22T18:50:57.859Z,54.42
2023-05-22T18:52:29.838Z,54.98
2023-05-22T18:54:01.571Z,54.73
2023-05-22T18:55:33.227Z,56.38
2023-05-22T18:57:05.094Z,54.70
2023-05-22T18:58:41.271Z,53.95
2023-05-22T19:00:13.221Z,54.58
2023-05-22T19:01:45.002Z,57.45
2023-05-22T19:03:16.733Z,58.30
2023-05-22T19:04:49.012Z,58.44
2023-05-22T19:06:20.822Z,58.52
2023-05-22T19:07:52.465Z,59.49
2023-05-22T19:09:24.685Z,59.52
2023-05-22T19:10:57.508Z,59.60
2023-05-22T19:12:31.803Z,60.37
2023-05-22T19:14:04.799Z,60.71
2023-05-22T19:15:37.668Z,59.98
2023-05-22T19:17:09.924Z,60.55
2023-05-22T19:18:41.710Z,61.49
2023-05-22T19:20:13.377Z,62.05
2023-05-22T19:21:45.033Z,62.09
2023-05-22T19:23:19.226Z,62.11
2023-05-22T19:24:51.188Z,62.42
2023-05-22T19:26:22.895Z,62.69
2023-05-22T19:27:54.584Z,62.05
2023-05-22T19:29:27.544Z,61.70
2023-05-22T19:31:00.131Z,61.35
2023-05-22T19:32:32.240Z,62.20
2023-05-22T19:34:04.047Z,61.58
2023-05-22T19:35:35.732Z,60.38
2023-05-22T19:37:07.690Z,59.77
2023-05-22T19:38:39.442Z,60.65
2023-05-22T19:40:11.378Z,59.82
2023-05-22T19:41:43.305Z,62.44
2023-05-22T19:43:14.957Z,61.39
2023-05-22T19:44:48.029Z,62.24
2023-05-22T19:46:19.671Z,61.85
2023-05-22T19:47:51.424Z,61.65
2023-05-22T19:49:23.133Z,61.85
2023-05-22T19:50:54.745Z,61.16
2023-05-22T19:52:29.103Z,61.63
2023-05-22T19:54:00.836Z,61.33
2023-05-22T19:55:32.669Z,62.07
2023-05-22T19:57:04.507Z,63.97